Terminal Aerodrome Forecast
Issued by NWS Charleston, WV

Current Version | Previous Version | Graphics & Text | Print | Product List | Glossary On
Versions: 1 2 3 4 5 6 7 8 9 10 11 12 13 14 15 16 17 18 19 20 21 22 23 24 25
617
FTUS41 KRLX 210523
TAFPKB
TAF
KPKB 210523Z 2106/2206 09004KT P6SM BKN250
     FM211700 18007KT P6SM BKN200
     FM220400 19004KT 5SM -SHRA BKN040=

USA.gov is the U.S. government's official web portal to all federal, state and local government web resources and services.